Detalii statie INDEPENDENTA [00001985]

Toti senzorii

Date Temperatura solului [C]Precipitatii [mm]Voltaj baterie [mV]Leaf Wetness [Min]HC Air temperature [C]HC Relative humidity [%]Punctul de roua [C]
medieminmaxsumaultimatimpmedieminmaxmediemediemin
2019-08-15 20:00:00 0 6922 23.87 22.9 24.88 0 0 0
2019-08-15 21:00:00 0 6894 22.06 21.39 22.79 0 0 0
2019-08-15 22:00:00 0 6884 20.93 20.41 21.33 0 0 0
2019-08-15 23:00:00 0 6874 20 19.55 20.42 8.08 0
2019-08-16 00:00:00 0 6854 19.13 18.77 19.51 100 19 18.7
2019-08-16 01:00:00 0 6864 18.52 18.45 18.61 75 0
2019-08-16 02:00:00 0 6854 18.31 18.14 18.44 100 18.2 18.1
2019-08-16 03:00:00 0 6844 18.03 17.99 18.09 91.66 0
2019-08-16 04:00:00 0 6844 17.97 17.84 18.12 100 17.9 17.8
2019-08-16 05:00:00 0 6854 17.79 17.66 17.97 100 17.7 17.6
2019-08-16 06:00:00 0 6844 17.29 17.02 17.7 83.33 14.3 0
2019-08-16 07:00:00 0 6844 17.36 17.14 17.55 91.66 0
2019-08-16 08:00:00 0 6914 17.68 17.3 18.5 83.33 14.5 0
2019-08-16 09:00:00 0 7020 18.89 18.5 19.76 0 0 0
2019-08-16 10:00:00 0 7080 20.17 19.78 21.09 0 0 0
2019-08-16 11:00:00 0 7118 21.64 21.05 22.35 0 0 0
2019-08-16 12:00:00 0 7196 23.86 22.51 25.31 0 0 0
2019-08-16 13:00:00 0 7274 25.41 24.29 26.5 0 0 0
2019-08-16 14:00:00 0 7254 25.83 24.94 26.63 0 0 0
2019-08-16 15:00:00 0 7274 26.02 25.11 26.99 0 0 0
2019-08-16 16:00:00 0 7274 27.2 25.72 28.61 0 0 0
2019-08-16 17:00:00 0 7274 27.64 26.29 29.01 0 0 0
2019-08-16 18:00:00 0 7274 27.85 26.31 28.83 0 0 0
2019-08-16 19:00:00 0 7236 26.72 25.77 28.32 0 0 0
2019-08-16 20:00:00 0 6922 25.2 24.24 25.74 0 0 0
2019-08-16 21:00:00 0 6904 24.01 23.57 24.27 0 0 0
2019-08-16 22:00:00 0 6884 22.37 21.38 23.39 0 0 0
2019-08-16 23:00:00 0 6884 20.65 20.42 21.2 0 0 0
2019-08-17 00:00:00 0 6864 18.86 18.17 20.34 0 0 0
2019-08-17 01:00:00 0 6864 16.98 16.21 18.13 0 0 0
2019-08-17 02:00:00 0 6854 16.06 15.58 16.56 0 0 0
2019-08-17 03:00:00 0 6844 16.35 15.74 16.6 0 0 0
2019-08-17 04:00:00 0 6844 16.83 16.41 17.26 0 0 0
2019-08-17 05:00:00 0 6834 17.55 17.36 17.75 0 0 0
2019-08-17 06:00:00 0 6834 16.96 16.18 17.33 33.33 5.6 0
2019-08-17 07:00:00 0 6844 16.08 15.7 16.55 0 0 0
2019-08-17 08:00:00 0 6894 17.19 16.65 18.64 0 0 0
2019-08-17 09:00:00 0 6972 20.31 19.1 21.96 0 0 0
2019-08-17 10:00:00 0 7040 23.6 22.24 24.74 0 0 0
2019-08-17 11:00:00 0 7108 25.4 24.76 26.35 0 0 0
2019-08-17 12:00:00 0 7246 26.51 25.61 28.5 0 0 0
2019-08-17 13:00:00 0 7264 28.56 26.93 30.08 0 0 0
2019-08-17 14:00:00 0 7264 28.68 27.46 29.7 0 0 0
2019-08-17 15:00:00 0 7274 28.52 27.47 29.63 0 0 0
2019-08-17 16:00:00 0 7254 28.8 28 29.92 0 0 0
2019-08-17 17:00:00 0 7254 28.84 27.24 30.46 0 0 0
2019-08-17 18:00:00 0 7274 28.21 27.41 29.02 0 0 0
2019-08-17 19:00:00 0 7020 27.73 26.41 28.74 0 0 0